Latest Weather Observations for Rockhampton

IDQ60801

Issued at 4:35 pm EST Wednesday 22 October 2014 (issued every 30 minutes, with the page automatically refreshed every 10 minutes)

About weather observations | Map of weather stations | Latest weather observations for QLD | Other Formats
Station Details ID: 039083 Name: ROCKHAMPTON AERO Lat: -23.38 Lon: 150.48 Height: 10.4 m
Data from the previous 72 hours. | See also: Recent months at Rockhampton
Date/Time
EST
Temp
°C
App
Temp
°C
Dew
Point
Rel
Hum
%
Delta-T
°C
Wind Press
QNH
hPa
Press
MSL
hPa
Rain
since 9 am
mm
Dir
 
Spd
km/h
Gust
km/h
Spd
kts
Gust
kts
22/04:30pm 24.4 21.8 13.8 51 6.2 NE 20 32 11 17 1019.0 - 0.0
22/04:00pm 25.3 22.3 13.7 48 6.8 NE 22 30 12 16 1018.7 - 0.0
22/03:30pm 26.1 23.5 13.9 47 7.2 NE 20 28 11 15 1018.6 - 0.0
22/03:00pm 26.8 25.2 14.0 45 7.6 ENE 15 24 8 13 1018.7 1018.6 0.0
22/02:30pm 26.4 24.8 13.9 46 7.4 E 15 24 8 13 1018.9 - 0.0
22/02:00pm 26.3 23.9 13.8 46 7.4 ENE 19 32 10 17 1019.4 - 0.0
22/01:30pm 26.4 23.9 13.5 45 7.6 NE 19 30 10 16 1019.8 - 0.0
22/01:00pm 26.6 24.1 12.4 41 8.2 E 17 28 9 15 1020.2 - 0.0
22/12:30pm 25.8 23.2 12.0 42 7.9 ESE 17 26 9 14 1020.7 - 0.0
22/12:00pm 25.2 22.0 12.0 43 7.5 ESE 20 30 11 16 1021.4 1021.3 0.0
22/11:30am 25.3 23.3 12.6 45 7.3 E 15 24 8 13 1021.8 - 0.0
22/11:00am 25.8 22.9 12.4 43 7.7 SE 19 30 10 16 1022.0 - 0.0
22/10:30am 24.7 21.2 12.3 46 7.1 SE 22 33 12 18 1022.3 - 0.0
22/10:00am 25.6 22.3 12.8 45 7.4 ESE 22 32 12 17 1022.7 - 0.0
22/09:30am 25.1 21.8 13.9 49 6.6 E 24 35 13 19 1023.1 - 0.0
22/09:00am 23.9 21.5 14.4 55 5.6 ESE 20 28 11 15 1023.3 1023.2 0.0
22/08:30am 22.5 19.5 14.9 62 4.5 ESE 24 35 13 19 1023.3 - 0.0
22/08:00am 22.1 19.6 15.2 65 4.1 ESE 22 33 12 18 1023.0 - 0.0
22/07:30am 21.7 19.3 15.5 68 3.7 ESE 22 37 12 20 1023.0 - 0.0
22/07:00am 20.9 19.3 15.9 73 3.0 ESE 19 30 10 16 1022.7 - 0.0
22/06:30am 20.2 19.7 15.8 76 2.6 SE 13 20 7 11 1022.8 - 0.0
22/06:00am 19.7 19.9 15.8 78 2.3 SE 9 15 5 8 1022.6 1022.5 0.0
22/05:30am 19.8 19.7 15.9 78 2.3 SE 11 17 6 9 1022.2 - 0.0
22/05:00am 20.0 19.9 16.0 78 2.4 SE 11 17 6 9 1021.9 - 0.0
22/04:30am 19.9 19.4 16.0 78 2.3 SE 13 17 7 9 1021.6 - 0.0
22/04:00am 19.8 19.7 15.9 78 2.3 SE 11 17 6 9 1021.6 - 0.0
22/03:30am 19.9 20.2 15.9 78 2.4 SSE 9 13 5 7 1021.6 - 0.0
22/03:00am 20.4 20.7 15.9 75 2.7 SSE 9 15 5 8 1021.6 1021.5 0.0
22/02:30am 20.9 21.1 15.7 72 3.1 SE 9 11 5 6 1021.9 - 0.0
22/02:00am 21.1 21.2 15.4 70 3.4 ESE 9 19 5 10 1022.0 - 0.0
22/01:30am 21.3 20.9 15.2 68 3.6 E 11 19 6 10 1022.4 - 0.0
22/01:00am 21.4 20.6 15.1 67 3.7 E 13 22 7 12 1022.8 - 0.0
22/12:30am 20.9 21.1 15.7 72 3.1 ESE 9 17 5 9 1023.2 - 0.0
22/12:00am 20.8 20.9 15.6 72 3.1 ESE 9 13 5 7 1023.4 1023.3 0.0
 
Date/Time
EST
Temp
°C
App
Temp
°C
Dew
Point
Rel
Hum
%
Delta-T
°C
Wind Press
QNH
hPa
Press
MSL
hPa
Rain
since 9 am
mm
Dir
 
Spd
km/h
Gust
km/h
Spd
kts
Gust
kts
21/11:30pm 20.8 20.9 15.4 71 3.2 ESE 9 19 5 10 1023.8 - 0.0
21/11:00pm 21.0 21.0 15.2 69 3.4 ESE 9 19 5 10 1024.0 - 0.0
21/10:30pm 20.9 20.1 15.1 69 3.4 ESE 13 19 7 10 1024.1 - 0.0
21/10:00pm 20.8 20.0 15.0 69 3.4 ESE 13 24 7 13 1024.3 - 0.0
21/09:30pm 20.6 19.4 15.0 70 3.3 ESE 15 22 8 12 1024.1 - 0.0
21/09:00pm 20.9 19.6 14.7 67 3.6 ESE 15 24 8 13 1024.0 1023.9 0.0
21/08:30pm 21.3 19.5 14.4 64 4.0 ESE 17 26 9 14 1023.9 - 0.0
21/08:00pm 21.5 20.3 14.1 62 4.3 ESE 13 20 7 11 1023.6 - 0.0
21/07:30pm 21.8 19.3 14.0 61 4.5 E 20 26 11 14 1023.3 - 0.0
21/07:00pm 21.8 19.4 13.8 60 4.6 E 19 28 10 15 1022.9 - 0.0
21/06:30pm 22.1 19.5 13.2 57 5.1 E 19 39 10 21 1022.7 - 0.0
21/06:22pm 22.2 19.9 13.1 56 5.2 E 17 28 9 15 1022.7 - 0.0
21/06:00pm 22.5 19.9 13.1 55 5.4 E 19 32 10 17 1022.5 1022.4 0.0
21/05:30pm 23.2 20.6 13.1 53 5.8 ENE 19 28 10 15 1022.0 - 0.0
21/05:00pm 24.2 20.8 11.4 44 7.2 E 20 32 11 17 1021.6 - 0.0
21/04:30pm 24.9 21.0 10.7 40 7.9 E 22 44 12 24 1021.3 - 0.0
21/04:00pm 26.0 21.7 10.8 38 8.5 E 24 35 13 19 1021.1 - 0.0
21/03:30pm 25.9 20.9 9.5 35 9.0 E 26 39 14 21 1021.0 - 0.0
21/03:00pm 26.9 22.0 8.4 31 10.0 E 24 35 13 19 1020.9 1020.8 0.0
21/02:33pm 27.3 21.4 7.7 29 10.5 E 28 44 15 24 1020.9 - 0.0
21/02:30pm 27.4 21.5 7.5 28 10.6 E 28 44 15 24 1021.0 - 0.0
21/02:00pm 27.4 20.7 5.8 25 11.2 E 30 43 16 23 1021.4 - 0.0
21/01:52pm 27.0 20.8 6.3 26 10.8 E 28 46 15 25 1021.5 - 0.0
21/01:30pm 27.4 21.3 6.4 26 11.0 E 28 39 15 21 1021.8 - 0.0
21/01:00pm 27.2 22.2 8.0 29 10.3 ENE 24 41 13 22 1022.4 - 0.0
21/12:30pm 27.1 22.2 11.2 37 9.0 ESE 28 44 15 24 1022.8 - 0.0
21/12:00pm 26.6 23.0 11.7 39 8.5 E 22 35 12 19 1023.1 1023.0 0.0
21/11:30am 26.7 23.1 11.8 39 8.5 ESE 22 37 12 20 1023.5 - 0.0
21/11:00am 26.2 22.6 11.8 40 8.2 ESE 22 43 12 23 1023.8 - 0.0
21/10:30am 25.6 21.7 13.4 46 7.1 SE 26 37 14 20 1024.2 - 0.0
21/10:00am 24.9 21.4 13.4 48 6.7 E 24 35 13 19 1024.4 - 0.0
21/09:30am 24.2 20.5 12.7 48 6.6 ESE 24 32 13 17 1024.5 - 0.0
21/09:00am 24.6 20.3 11.9 45 7.2 E 26 41 14 22 1024.5 1024.4 0.0
21/08:30am 23.4 20.5 14.0 55 5.5 SE 22 30 12 16 1024.4 - 0.0
21/08:00am 22.5 19.2 13.9 58 5.0 SE 24 32 13 17 1024.3 - 0.0
21/07:30am 20.7 20.2 14.9 69 3.4 E 11 17 6 9 1024.2 - 0.0
21/07:00am 19.5 18.9 14.5 73 2.9 ESE 11 19 6 10 1023.9 - 0.0
21/06:30am 18.3 17.6 14.3 77 2.3 ESE 11 15 6 8 1023.4 - 0.0
21/06:00am 17.3 16.8 13.9 80 1.9 ESE 9 13 5 7 1023.1 1023.0 0.0
21/05:30am 16.5 16.0 13.7 83 1.6 ESE 9 13 5 7 1022.8 - 0.0
21/05:00am 16.9 15.9 13.5 80 1.9 SE 11 17 6 9 1022.5 - 0.0
21/04:30am 16.9 16.0 13.7 81 1.8 ESE 11 17 6 9 1022.2 - 0.0
21/04:00am 16.9 15.9 13.5 80 1.9 ESE 11 17 6 9 1021.9 - 0.0
21/03:30am 17.1 16.1 13.4 79 2.1 SE 11 17 6 9 1022.0 - 0.0
21/03:00am 17.0 16.3 13.2 78 2.1 ESE 9 15 5 8 1021.8 1021.7 0.0
21/02:30am 16.9 15.8 13.1 78 2.1 ESE 11 15 6 8 1021.7 - 0.0
21/02:00am 16.8 16.5 13.2 79 2.0 ESE 7 9 4 5 1021.9 - 0.0
21/01:30am 17.7 17.4 13.4 76 2.4 SE 7 11 4 6 1022.1 - 0.0
21/01:00am 18.1 17.1 13.5 74 2.6 ESE 11 17 6 9 1022.4 - 0.0
21/12:30am 18.5 17.1 13.4 72 2.9 SE 13 17 7 9 1022.6 - 0.0
21/12:00am 18.4 17.5 13.6 73 2.7 SE 11 13 6 7 1023.0 1022.9 0.0
 
Date/Time
EST
Temp
°C
App
Temp
°C
Dew
Point
Rel
Hum
%
Delta-T
°C
Wind Press
QNH
hPa
Press
MSL
hPa
Rain
since 9 am
mm
Dir
 
Spd
km/h
Gust
km/h
Spd
kts
Gust
kts
20/11:30pm 18.3 17.8 13.7 74 2.6 ESE 9 15 5 8 1023.5 - 0.0
20/11:00pm 18.9 17.5 13.4 70 3.1 ESE 13 19 7 10 1023.9 - 0.0
20/10:30pm 19.5 18.0 13.1 66 3.6 ESE 13 19 7 10 1024.0 - 0.0
20/10:00pm 19.6 18.1 13.0 65 3.7 ESE 13 20 7 11 1024.0 - 0.0
20/09:30pm 20.1 18.6 13.0 63 4.0 ESE 13 19 7 10 1023.7 - 0.0
20/09:00pm 20.0 19.4 13.5 66 3.7 ESE 9 13 5 7 1023.4 1023.3 0.0
20/08:30pm 20.4 19.1 13.6 65 3.9 ESE 13 19 7 10 1023.1 - 0.0
20/08:00pm 20.6 19.7 13.6 64 4.0 E 11 17 6 9 1022.8 - 0.0
20/07:30pm 20.9 19.4 13.2 61 4.4 E 13 20 7 11 1022.1 - 0.0
20/07:00pm 21.3 18.6 13.0 59 4.7 E 19 28 10 15 1021.8 - 0.0
20/06:30pm 21.5 19.1 12.7 57 5.0 E 17 28 9 15 1021.3 - 0.0
20/06:00pm 22.3 20.0 10.6 47 6.4 ENE 13 26 7 14 1020.9 1020.8 0.0
20/05:30pm 23.5 20.2 9.4 40 7.6 E 17 24 9 13 1020.4 - 0.0
20/05:00pm 24.6 22.3 10.5 41 7.8 ENE 13 20 7 11 1020.0 - 0.0
20/04:30pm 25.3 22.4 9.8 37 8.5 E 15 24 8 13 1019.6 - 0.0
20/04:00pm 26.0 22.1 8.6 33 9.4 E 19 24 10 13 1019.5 - 0.0
20/03:30pm 26.4 22.7 7.9 31 9.9 ESE 17 24 9 13 1019.4 - 0.0
20/03:00pm 26.7 22.2 6.1 27 10.7 E 19 26 10 14 1019.5 1019.4 0.0
20/02:30pm 26.8 22.5 5.3 25 11.0 ENE 17 28 9 15 1019.6 - 0.0
20/02:00pm 27.9 24.5 5.8 24 11.5 ENE 13 24 7 13 1020.0 - 0.0
20/01:30pm 27.4 23.5 7.0 27 10.8 E 17 24 9 13 1020.3 - 0.0
20/01:00pm 26.5 22.0 6.3 27 10.5 E 19 26 10 14 1020.9 - 0.0
20/12:30pm 26.6 22.4 7.6 30 10.1 E 19 24 10 13 1021.5 - 0.0
20/12:00pm 26.2 23.4 9.9 35 9.0 E 15 28 8 15 1022.0 1021.9 0.0
20/11:30am 25.7 23.0 9.1 35 9.0 E 13 19 7 10 1022.4 - 0.0
20/11:00am 25.7 21.6 6.4 29 10.0 ESE 17 26 9 14 1022.8 - 0.0
20/10:30am 25.3 21.6 8.0 33 9.2 ESE 17 26 9 14 1023.3 - 0.0
20/10:00am 24.7 21.7 9.4 38 8.3 ESE 15 24 8 13 1023.6 - 0.0
20/09:30am 24.1 21.4 10.3 41 7.6 E 15 24 8 13 1024.0 - 0.0
20/09:00am 23.0 20.1 11.1 47 6.6 E 17 20 9 11 1024.5 1024.4 0.0
20/08:30am 22.0 19.2 11.3 50 5.9 SE 17 26 9 14 1024.6 - 0.0
20/08:00am 21.2 18.9 11.6 54 5.3 ESE 15 22 8 12 1024.6 - 0.0
20/07:30am 20.0 18.2 12.1 60 4.4 SE 13 19 7 10 1024.6 - 0.0
20/07:00am 19.1 18.5 12.2 64 3.8 ESE 7 15 4 8 1024.4 - 0.0
20/06:30am 18.1 18.8 13.3 73 2.7 ESE 2 7 1 4 1024.2 - 0.0
20/06:00am 15.8 16.7 12.9 83 1.6 CALM 0 0 0 0 1023.8 1023.7 0.0
20/05:30am 15.7 15.4 12.8 83 1.6 E 6 7 3 4 1023.2 - 0.0
20/05:00am 16.0 15.5 12.5 80 1.9 E 7 11 4 6 1023.0 - 0.0
20/04:30am 16.1 14.4 12.6 80 1.9 ESE 13 15 7 8 1022.8 - 0.0
20/04:00am 16.2 15.7 12.6 79 2.0 E 7 11 4 6 1022.7 - 0.0
20/03:30am 16.2 15.3 12.6 79 2.0 ENE 9 13 5 7 1022.4 - 0.0
20/03:00am 16.9 16.4 12.5 75 2.4 ESE 7 9 4 5 1022.4 1022.3 0.0
20/02:30am 17.6 16.7 12.7 73 2.7 SE 9 13 5 7 1022.3 - 0.0
20/02:00am 17.8 16.7 13.0 73 2.7 SE 11 15 6 8 1022.4 - 0.0
20/01:30am 17.9 17.6 13.3 74 2.6 SSE 7 11 4 6 1022.7 - 0.0
20/01:00am 18.8 17.7 13.1 69 3.2 SE 11 15 6 8 1022.9 - 0.0
20/12:30am 18.8 17.7 13.1 69 3.2 ESE 11 15 6 8 1023.3 - 0.0
20/12:00am 19.4 18.3 13.2 67 3.5 ESE 11 17 6 9 1023.7 1023.6 0.0
 
Date/Time
EST
Temp
°C
App
Temp
°C
Dew
Point
Rel
Hum
%
Delta-T
°C
Wind Press
QNH
hPa
Press
MSL
hPa
Rain
since 9 am
mm
Dir
 
Spd
km/h
Gust
km/h
Spd
kts
Gust
kts
19/11:30pm 20.0 18.2 13.3 65 3.8 ESE 15 20 8 11 1023.9 - 0.0
19/11:00pm 19.7 18.7 13.4 67 3.6 ESE 11 15 6 8 1024.3 - 0.0
19/10:30pm 19.7 17.9 13.2 66 3.7 E 15 20 8 11 1024.4 - 0.0
19/10:00pm 20.1 18.6 13.0 63 4.0 ESE 13 20 7 11 1024.5 - 0.0
19/09:30pm 20.2 18.3 12.9 63 4.1 E 15 22 8 12 1024.3 - 0.0
19/09:00pm 20.3 17.7 13.3 64 4.0 E 19 24 10 13 1024.2 1024.1 0.0
19/08:30pm 20.7 18.9 13.3 62 4.2 E 15 24 8 13 1024.0 - 0.0
19/08:00pm 21.2 19.0 13.3 60 4.5 E 17 28 9 15 1023.6 - 0.0
19/07:30pm 21.5 18.4 13.5 60 4.6 E 22 35 12 19 1023.4 - 0.0
19/07:00pm 21.7 19.2 13.5 59 4.7 E 19 28 10 15 1023.2 - 0.0
19/06:30pm 21.7 19.6 13.5 59 4.7 E 17 24 9 13 1022.8 - 0.0
19/06:00pm 22.1 19.4 12.8 55 5.3 E 19 26 10 14 1022.7 1022.6 0.0
19/05:30pm 22.8 19.7 12.2 51 6.0 E 20 33 11 18 1022.5 - 0.0
19/05:00pm 23.7 20.2 12.3 48 6.5 E 22 32 12 17 1021.9 - 0.0

Other Formats:

Comma delimited format used in spreadsheet applications
http://www.bom.gov.au/fwo/IDQ60801/IDQ60801.94374.axf

JavaScript Object Notation format (JSON) in row-major order
http://www.bom.gov.au/fwo/IDQ60801/IDQ60801.94374.json